sensor_id;sensor_type;location;lat;lon;timestamp;P1;durP1;ratioP1;P2;durP2;ratioP2
35667;SDS011;22158;59.280;17.806;2023-07-20T00:01:44;3.42;;;0.90;;
35667;SDS011;22158;59.280;17.806;2023-07-20T00:04:10;5.18;;;1.30;;
35667;SDS011;22158;59.280;17.806;2023-07-20T00:06:36;4.95;;;1.00;;
35667;SDS011;22158;59.280;17.806;2023-07-20T00:09:05;1.90;;;1.38;;
35667;SDS011;22158;59.280;17.806;2023-07-20T00:11:35;5.95;;;1.20;;
35667;SDS011;22158;59.280;17.806;2023-07-20T00:16:30;1.85;;;1.13;;
35667;SDS011;22158;59.280;17.806;2023-07-20T00:18:56;2.90;;;1.25;;
35667;SDS011;22158;59.280;17.806;2023-07-20T00:21:22;7.43;;;1.08;;
35667;SDS011;22158;59.280;17.806;2023-07-20T00:23:47;2.10;;;0.85;;
35667;SDS011;22158;59.280;17.806;2023-07-20T00:26:13;5.05;;;1.48;;
35667;SDS011;22158;59.280;17.806;2023-07-20T00:28:38;1.85;;;0.93;;
35667;SDS011;22158;59.280;17.806;2023-07-20T00:31:04;5.40;;;0.90;;
35667;SDS011;22158;59.280;17.806;2023-07-20T00:33:30;3.38;;;1.00;;
35667;SDS011;22158;59.280;17.806;2023-07-20T00:35:55;6.13;;;1.63;;
35667;SDS011;22158;59.280;17.806;2023-07-20T00:38:21;2.50;;;1.33;;
35667;SDS011;22158;59.280;17.806;2023-07-20T00:40:47;2.78;;;1.20;;
35667;SDS011;22158;59.280;17.806;2023-07-20T00:43:14;1.50;;;1.00;;
35667;SDS011;22158;59.280;17.806;2023-07-20T00:45:40;4.28;;;1.05;;
35667;SDS011;22158;59.280;17.806;2023-07-20T00:48:06;4.65;;;1.00;;
35667;SDS011;22158;59.280;17.806;2023-07-20T00:50:33;2.72;;;1.08;;
35667;SDS011;22158;59.280;17.806;2023-07-20T00:52:59;4.60;;;1.23;;
35667;SDS011;22158;59.280;17.806;2023-07-20T00:55:25;9.38;;;1.33;;
35667;SDS011;22158;59.280;17.806;2023-07-20T00:57:52;4.82;;;1.35;;
35667;SDS011;22158;59.280;17.806;2023-07-20T01:00:17;5.10;;;1.25;;
35667;SDS011;22158;59.280;17.806;2023-07-20T01:02:43;5.15;;;1.55;;
35667;SDS011;22158;59.280;17.806;2023-07-20T01:05:09;3.22;;;1.52;;
35667;SDS011;22158;59.280;17.806;2023-07-20T01:10:14;4.65;;;1.42;;
35667;SDS011;22158;59.280;17.806;2023-07-20T01:12:43;3.88;;;1.20;;
35667;SDS011;22158;59.280;17.806;2023-07-20T01:15:12;3.08;;;1.85;;
35667;SDS011;22158;59.280;17.806;2023-07-20T01:17:38;7.07;;;1.83;;
35667;SDS011;22158;59.280;17.806;2023-07-20T01:20:04;5.97;;;1.20;;
35667;SDS011;22158;59.280;17.806;2023-07-20T01:22:37;2.08;;;1.10;;
35667;SDS011;22158;59.280;17.806;2023-07-20T01:33:43;7.85;;;1.48;;
35667;SDS011;22158;59.280;17.806;2023-07-20T01:36:10;4.32;;;1.63;;
35667;SDS011;22158;59.280;17.806;2023-07-20T01:38:36;3.65;;;1.27;;
35667;SDS011;22158;59.280;17.806;2023-07-20T01:41:02;2.70;;;1.20;;
35667;SDS011;22158;59.280;17.806;2023-07-20T01:43:29;5.20;;;1.33;;
35667;SDS011;22158;59.280;17.806;2023-07-20T01:45:54;8.75;;;2.10;;
35667;SDS011;22158;59.280;17.806;2023-07-20T01:48:20;10.20;;;2.33;;
35667;SDS011;22158;59.280;17.806;2023-07-20T01:50:45;4.50;;;1.45;;
35667;SDS011;22158;59.280;17.806;2023-07-20T01:53:11;3.63;;;1.27;;
35667;SDS011;22158;59.280;17.806;2023-07-20T01:55:37;7.82;;;1.67;;
35667;SDS011;22158;59.280;17.806;2023-07-20T01:58:02;6.03;;;1.50;;
35667;SDS011;22158;59.280;17.806;2023-07-20T02:00:28;7.45;;;1.80;;
35667;SDS011;22158;59.280;17.806;2023-07-20T02:02:54;6.45;;;1.48;;
35667;SDS011;22158;59.280;17.806;2023-07-20T02:05:20;4.35;;;1.70;;
35667;SDS011;22158;59.280;17.806;2023-07-20T02:07:45;5.20;;;1.30;;
35667;SDS011;22158;59.280;17.806;2023-07-20T02:10:11;3.45;;;0.93;;
35667;SDS011;22158;59.280;17.806;2023-07-20T02:12:37;5.82;;;1.83;;
35667;SDS011;22158;59.280;17.806;2023-07-20T02:15:02;3.83;;;1.63;;
35667;SDS011;22158;59.280;17.806;2023-07-20T02:17:28;2.80;;;1.45;;
35667;SDS011;22158;59.280;17.806;2023-07-20T02:19:55;5.57;;;1.73;;
35667;SDS011;22158;59.280;17.806;2023-07-20T02:22:21;8.93;;;2.53;;
35667;SDS011;22158;59.280;17.806;2023-07-20T02:24:47;3.47;;;1.48;;
35667;SDS011;22158;59.280;17.806;2023-07-20T02:27:13;2.90;;;1.58;;
35667;SDS011;22158;59.280;17.806;2023-07-20T02:29:40;6.10;;;1.35;;
35667;SDS011;22158;59.280;17.806;2023-07-20T02:32:06;9.32;;;1.77;;
35667;SDS011;22158;59.280;17.806;2023-07-20T02:34:32;6.32;;;1.63;;
35667;SDS011;22158;59.280;17.806;2023-07-20T02:36:59;4.25;;;1.60;;
35667;SDS011;22158;59.280;17.806;2023-07-20T02:39:28;3.20;;;1.48;;
35667;SDS011;22158;59.280;17.806;2023-07-20T02:41:54;5.57;;;1.35;;
35667;SDS011;22158;59.280;17.806;2023-07-20T02:44:20;4.05;;;1.85;;
35667;SDS011;22158;59.280;17.806;2023-07-20T02:46:46;4.70;;;1.70;;
35667;SDS011;22158;59.280;17.806;2023-07-20T02:49:11;5.88;;;1.95;;
35667;SDS011;22158;59.280;17.806;2023-07-20T02:51:37;4.45;;;1.80;;
35667;SDS011;22158;59.280;17.806;2023-07-20T02:54:03;9.05;;;1.67;;
35667;SDS011;22158;59.280;17.806;2023-07-20T02:56:29;4.60;;;1.77;;
35667;SDS011;22158;59.280;17.806;2023-07-20T02:58:54;5.18;;;1.80;;
35667;SDS011;22158;59.280;17.806;2023-07-20T03:01:20;6.70;;;2.03;;
35667;SDS011;22158;59.280;17.806;2023-07-20T03:03:45;5.18;;;1.33;;
35667;SDS011;22158;59.280;17.806;2023-07-20T03:06:14;7.68;;;1.77;;
35667;SDS011;22158;59.280;17.806;2023-07-20T03:08:40;4.55;;;1.70;;
35667;SDS011;22158;59.280;17.806;2023-07-20T03:11:07;5.28;;;2.03;;
35667;SDS011;22158;59.280;17.806;2023-07-20T03:13:32;2.80;;;1.60;;
35667;SDS011;22158;59.280;17.806;2023-07-20T03:15:58;9.75;;;2.85;;
35667;SDS011;22158;59.280;17.806;2023-07-20T03:18:23;3.08;;;1.55;;
35667;SDS011;22158;59.280;17.806;2023-07-20T03:20:49;3.00;;;1.70;;
35667;SDS011;22158;59.280;17.806;2023-07-20T03:23:15;4.35;;;1.45;;
35667;SDS011;22158;59.280;17.806;2023-07-20T03:25:41;6.38;;;1.85;;
35667;SDS011;22158;59.280;17.806;2023-07-20T03:28:07;4.10;;;1.70;;
35667;SDS011;22158;59.280;17.806;2023-07-20T03:30:32;6.00;;;1.80;;
35667;SDS011;22158;59.280;17.806;2023-07-20T03:32:58;9.75;;;2.42;;
35667;SDS011;22158;59.280;17.806;2023-07-20T03:35:23;7.45;;;1.80;;
35667;SDS011;22158;59.280;17.806;2023-07-20T03:37:49;6.40;;;2.05;;
35667;SDS011;22158;59.280;17.806;2023-07-20T03:40:15;6.63;;;1.80;;
35667;SDS011;22158;59.280;17.806;2023-07-20T03:42:41;7.15;;;1.80;;
35667;SDS011;22158;59.280;17.806;2023-07-20T03:45:07;10.73;;;3.22;;
35667;SDS011;22158;59.280;17.806;2023-07-20T03:47:33;16.83;;;3.45;;
35667;SDS011;22158;59.280;17.806;2023-07-20T03:49:58;6.60;;;1.88;;
35667;SDS011;22158;59.280;17.806;2023-07-20T03:52:24;8.77;;;1.75;;
35667;SDS011;22158;59.280;17.806;2023-07-20T03:54:49;7.07;;;1.90;;
35667;SDS011;22158;59.280;17.806;2023-07-20T03:57:18;13.48;;;2.50;;
35667;SDS011;22158;59.280;17.806;2023-07-20T03:59:48;9.02;;;2.28;;
35667;SDS011;22158;59.280;17.806;2023-07-20T04:02:14;8.30;;;1.85;;
35667;SDS011;22158;59.280;17.806;2023-07-20T04:04:39;8.98;;;1.90;;
35667;SDS011;22158;59.280;17.806;2023-07-20T04:07:06;5.00;;;1.50;;
35667;SDS011;22158;59.280;17.806;2023-07-20T04:09:32;5.63;;;2.15;;
35667;SDS011;22158;59.280;17.806;2023-07-20T04:11:58;9.40;;;2.15;;
35667;SDS011;22158;59.280;17.806;2023-07-20T04:14:23;7.00;;;2.15;;
35667;SDS011;22158;59.280;17.806;2023-07-20T04:16:49;12.93;;;4.00;;
35667;SDS011;22158;59.280;17.806;2023-07-20T04:19:16;6.15;;;2.17;;
35667;SDS011;22158;59.280;17.806;2023-07-20T04:21:43;5.97;;;2.08;;
35667;SDS011;22158;59.280;17.806;2023-07-20T04:24:08;5.78;;;1.85;;
35667;SDS011;22158;59.280;17.806;2023-07-20T04:26:34;5.60;;;2.15;;
35667;SDS011;22158;59.280;17.806;2023-07-20T04:29:00;6.40;;;2.03;;
35667;SDS011;22158;59.280;17.806;2023-07-20T04:31:26;7.05;;;2.40;;
35667;SDS011;22158;59.280;17.806;2023-07-20T04:33:51;10.75;;;2.03;;
35667;SDS011;22158;59.280;17.806;2023-07-20T04:36:17;7.45;;;2.95;;
35667;SDS011;22158;59.280;17.806;2023-07-20T04:38:44;7.05;;;3.20;;
35667;SDS011;22158;59.280;17.806;2023-07-20T04:41:10;6.78;;;2.25;;
35667;SDS011;22158;59.280;17.806;2023-07-20T04:43:40;12.48;;;2.55;;
35667;SDS011;22158;59.280;17.806;2023-07-20T04:46:08;5.15;;;2.35;;
35667;SDS011;22158;59.280;17.806;2023-07-20T04:48:34;5.78;;;2.03;;
35667;SDS011;22158;59.280;17.806;2023-07-20T04:50:59;8.68;;;3.03;;
35667;SDS011;22158;59.280;17.806;2023-07-20T04:53:25;6.43;;;2.42;;
35667;SDS011;22158;59.280;17.806;2023-07-20T04:55:51;7.03;;;2.28;;
35667;SDS011;22158;59.280;17.806;2023-07-20T04:58:17;6.82;;;3.25;;
35667;SDS011;22158;59.280;17.806;2023-07-20T05:00:43;13.07;;;3.80;;
35667;SDS011;22158;59.280;17.806;2023-07-20T05:03:09;7.60;;;2.53;;
35667;SDS011;22158;59.280;17.806;2023-07-20T05:05:34;7.43;;;2.25;;
35667;SDS011;22158;59.280;17.806;2023-07-20T05:08:00;9.30;;;2.88;;
35667;SDS011;22158;59.280;17.806;2023-07-20T05:10:25;5.15;;;2.47;;
35667;SDS011;22158;59.280;17.806;2023-07-20T05:12:51;7.45;;;2.00;;
35667;SDS011;22158;59.280;17.806;2023-07-20T05:15:17;5.75;;;2.28;;
35667;SDS011;22158;59.280;17.806;2023-07-20T05:17:42;5.28;;;2.17;;
35667;SDS011;22158;59.280;17.806;2023-07-20T05:20:08;6.97;;;2.20;;
35667;SDS011;22158;59.280;17.806;2023-07-20T05:22:35;5.80;;;2.40;;
35667;SDS011;22158;59.280;17.806;2023-07-20T05:25:04;8.02;;;2.58;;
35667;SDS011;22158;59.280;17.806;2023-07-20T05:27:34;10.27;;;2.40;;
35667;SDS011;22158;59.280;17.806;2023-07-20T05:30:02;7.38;;;2.45;;
35667;SDS011;22158;59.280;17.806;2023-07-20T05:32:27;11.10;;;2.70;;
35667;SDS011;22158;59.280;17.806;2023-07-20T05:34:53;8.02;;;2.85;;
35667;SDS011;22158;59.280;17.806;2023-07-20T05:37:19;6.32;;;2.22;;
35667;SDS011;22158;59.280;17.806;2023-07-20T05:39:45;8.95;;;2.40;;
35667;SDS011;22158;59.280;17.806;2023-07-20T05:42:11;11.80;;;2.67;;
35667;SDS011;22158;59.280;17.806;2023-07-20T05:44:36;7.03;;;2.13;;
35667;SDS011;22158;59.280;17.806;2023-07-20T05:47:02;6.68;;;2.50;;
35667;SDS011;22158;59.280;17.806;2023-07-20T05:49:28;9.50;;;3.10;;
35667;SDS011;22158;59.280;17.806;2023-07-20T05:51:54;8.93;;;2.42;;
35667;SDS011;22158;59.280;17.806;2023-07-20T05:54:21;7.95;;;2.50;;
35667;SDS011;22158;59.280;17.806;2023-07-20T05:56:46;8.90;;;2.55;;
35667;SDS011;22158;59.280;17.806;2023-07-20T05:59:12;7.72;;;2.40;;
35667;SDS011;22158;59.280;17.806;2023-07-20T06:01:38;16.35;;;2.47;;
35667;SDS011;22158;59.280;17.806;2023-07-20T06:04:03;7.03;;;2.28;;
35667;SDS011;22158;59.280;17.806;2023-07-20T06:06:29;5.38;;;2.35;;
35667;SDS011;22158;59.280;17.806;2023-07-20T06:08:55;5.47;;;1.92;;
35667;SDS011;22158;59.280;17.806;2023-07-20T06:11:20;9.75;;;2.20;;
35667;SDS011;22158;59.280;17.806;2023-07-20T06:13:46;8.48;;;2.65;;
35667;SDS011;22158;59.280;17.806;2023-07-20T06:16:11;11.20;;;3.50;;
35667;SDS011;22158;59.280;17.806;2023-07-20T06:18:37;5.30;;;2.20;;
35667;SDS011;22158;59.280;17.806;2023-07-20T06:21:03;8.85;;;2.55;;
35667;SDS011;22158;59.280;17.806;2023-07-20T06:23:28;8.60;;;2.10;;
35667;SDS011;22158;59.280;17.806;2023-07-20T06:25:54;5.60;;;2.60;;
35667;SDS011;22158;59.280;17.806;2023-07-20T06:28:19;7.88;;;2.30;;
35667;SDS011;22158;59.280;17.806;2023-07-20T06:30:45;5.85;;;2.30;;
35667;SDS011;22158;59.280;17.806;2023-07-20T06:33:10;6.72;;;1.90;;
35667;SDS011;22158;59.280;17.806;2023-07-20T06:35:36;5.32;;;2.15;;
35667;SDS011;22158;59.280;17.806;2023-07-20T06:38:02;15.88;;;4.13;;
35667;SDS011;22158;59.280;17.806;2023-07-20T06:40:28;7.07;;;2.17;;
35667;SDS011;22158;59.280;17.806;2023-07-20T06:42:57;7.15;;;2.33;;
35667;SDS011;22158;59.280;17.806;2023-07-20T06:45:23;9.60;;;2.58;;
35667;SDS011;22158;59.280;17.806;2023-07-20T06:47:48;12.25;;;3.72;;
35667;SDS011;22158;59.280;17.806;2023-07-20T06:50:14;3.25;;;1.70;;
35667;SDS011;22158;59.280;17.806;2023-07-20T06:52:40;6.93;;;2.03;;
35667;SDS011;22158;59.280;17.806;2023-07-20T06:55:06;5.50;;;2.67;;
35667;SDS011;22158;59.280;17.806;2023-07-20T06:57:32;10.27;;;3.25;;
35667;SDS011;22158;59.280;17.806;2023-07-20T06:59:58;7.38;;;2.60;;
35667;SDS011;22158;59.280;17.806;2023-07-20T07:02:23;6.60;;;1.88;;
35667;SDS011;22158;59.280;17.806;2023-07-20T07:04:50;5.00;;;2.28;;
35667;SDS011;22158;59.280;17.806;2023-07-20T07:07:15;7.45;;;2.30;;
35667;SDS011;22158;59.280;17.806;2023-07-20T07:09:41;5.78;;;2.50;;
35667;SDS011;22158;59.280;17.806;2023-07-20T07:12:07;9.15;;;2.78;;
35667;SDS011;22158;59.280;17.806;2023-07-20T07:14:33;10.25;;;2.60;;
35667;SDS011;22158;59.280;17.806;2023-07-20T07:16:59;5.32;;;2.10;;
35667;SDS011;22158;59.280;17.806;2023-07-20T07:19:25;7.43;;;2.58;;
35667;SDS011;22158;59.280;17.806;2023-07-20T07:21:51;6.85;;;2.80;;
35667;SDS011;22158;59.280;17.806;2023-07-20T07:24:16;6.55;;;2.17;;
35667;SDS011;22158;59.280;17.806;2023-07-20T07:26:42;5.53;;;1.90;;
35667;SDS011;22158;59.280;17.806;2023-07-20T07:29:07;6.45;;;1.77;;
35667;SDS011;22158;59.280;17.806;2023-07-20T07:31:36;5.50;;;2.22;;
35667;SDS011;22158;59.280;17.806;2023-07-20T07:34:03;4.70;;;2.17;;
35667;SDS011;22158;59.280;17.806;2023-07-20T07:36:29;5.35;;;1.80;;
35667;SDS011;22158;59.280;17.806;2023-07-20T07:38:55;6.00;;;1.90;;
35667;SDS011;22158;59.280;17.806;2023-07-20T07:41:21;7.78;;;3.15;;
35667;SDS011;22158;59.280;17.806;2023-07-20T07:43:47;3.80;;;2.10;;
35667;SDS011;22158;59.280;17.806;2023-07-20T07:46:13;5.75;;;2.40;;
35667;SDS011;22158;59.280;17.806;2023-07-20T07:48:39;8.73;;;1.98;;
35667;SDS011;22158;59.280;17.806;2023-07-20T07:51:05;6.57;;;1.75;;
35667;SDS011;22158;59.280;17.806;2023-07-20T07:53:30;6.80;;;1.90;;
35667;SDS011;22158;59.280;17.806;2023-07-20T07:55:57;3.65;;;1.55;;
35667;SDS011;22158;59.280;17.806;2023-07-20T07:58:23;5.90;;;1.80;;
35667;SDS011;22158;59.280;17.806;2023-07-20T08:00:49;7.40;;;1.80;;
35667;SDS011;22158;59.280;17.806;2023-07-20T08:03:14;4.05;;;1.70;;
35667;SDS011;22158;59.280;17.806;2023-07-20T08:05:40;4.85;;;1.75;;
35667;SDS011;22158;59.280;17.806;2023-07-20T08:08:05;4.20;;;1.70;;
35667;SDS011;22158;59.280;17.806;2023-07-20T08:10:31;5.80;;;1.80;;
35667;SDS011;22158;59.280;17.806;2023-07-20T08:12:57;6.28;;;1.80;;
35667;SDS011;22158;59.280;17.806;2023-07-20T08:15:22;6.43;;;1.60;;
35667;SDS011;22158;59.280;17.806;2023-07-20T08:17:48;3.05;;;1.98;;
35667;SDS011;22158;59.280;17.806;2023-07-20T08:20:16;6.80;;;1.85;;
35667;SDS011;22158;59.280;17.806;2023-07-20T08:22:43;4.50;;;1.40;;
35667;SDS011;22158;59.280;17.806;2023-07-20T08:25:09;4.18;;;1.40;;
35667;SDS011;22158;59.280;17.806;2023-07-20T08:27:35;1.77;;;1.30;;
35667;SDS011;22158;59.280;17.806;2023-07-20T08:30:01;6.03;;;2.00;;
35667;SDS011;22158;59.280;17.806;2023-07-20T08:32:27;2.97;;;1.70;;
35667;SDS011;22158;59.280;17.806;2023-07-20T08:34:53;7.07;;;1.83;;
35667;SDS011;22158;59.280;17.806;2023-07-20T08:37:18;4.80;;;1.58;;
35667;SDS011;22158;59.280;17.806;2023-07-20T08:39:44;5.20;;;1.60;;
35667;SDS011;22158;59.280;17.806;2023-07-20T08:42:10;5.55;;;1.77;;
35667;SDS011;22158;59.280;17.806;2023-07-20T08:44:37;3.53;;;2.00;;
35667;SDS011;22158;59.280;17.806;2023-07-20T08:47:04;6.32;;;1.48;;
35667;SDS011;22158;59.280;17.806;2023-07-20T08:49:32;7.55;;;1.55;;
35667;SDS011;22158;59.280;17.806;2023-07-20T08:51:58;2.67;;;1.50;;
35667;SDS011;22158;59.280;17.806;2023-07-20T08:54:26;5.20;;;2.45;;
35667;SDS011;22158;59.280;17.806;2023-07-20T08:56:54;5.70;;;1.70;;
35667;SDS011;22158;59.280;17.806;2023-07-20T08:59:22;4.55;;;1.55;;
35667;SDS011;22158;59.280;17.806;2023-07-20T09:01:49;4.00;;;1.70;;
35667;SDS011;22158;59.280;17.806;2023-07-20T09:04:17;4.95;;;1.50;;
35667;SDS011;22158;59.280;17.806;2023-07-20T09:06:43;4.50;;;1.48;;
35667;SDS011;22158;59.280;17.806;2023-07-20T09:09:08;2.30;;;1.52;;
35667;SDS011;22158;59.280;17.806;2023-07-20T09:11:34;3.63;;;1.65;;
35667;SDS011;22158;59.280;17.806;2023-07-20T09:14:06;3.72;;;1.38;;
35667;SDS011;22158;59.280;17.806;2023-07-20T09:16:32;7.60;;;1.67;;
35667;SDS011;22158;59.280;17.806;2023-07-20T09:19:11;2.13;;;1.33;;
35667;SDS011;22158;59.280;17.806;2023-07-20T09:21:37;3.95;;;1.60;;
35667;SDS011;22158;59.280;17.806;2023-07-20T09:24:02;3.53;;;1.88;;
35667;SDS011;22158;59.280;17.806;2023-07-20T09:26:28;4.03;;;1.50;;
35667;SDS011;22158;59.280;17.806;2023-07-20T09:28:54;4.20;;;1.70;;
35667;SDS011;22158;59.280;17.806;2023-07-20T09:31:21;4.18;;;1.63;;
35667;SDS011;22158;59.280;17.806;2023-07-20T09:33:48;3.20;;;1.67;;
35667;SDS011;22158;59.280;17.806;2023-07-20T09:36:14;2.88;;;1.60;;
35667;SDS011;22158;59.280;17.806;2023-07-20T09:38:43;3.83;;;1.60;;
35667;SDS011;22158;59.280;17.806;2023-07-20T09:41:15;5.72;;;1.50;;
35667;SDS011;22158;59.280;17.806;2023-07-20T09:43:43;4.57;;;1.45;;
35667;SDS011;22158;59.280;17.806;2023-07-20T09:46:10;3.05;;;1.50;;
35667;SDS011;22158;59.280;17.806;2023-07-20T09:48:36;3.28;;;1.55;;
35667;SDS011;22158;59.280;17.806;2023-07-20T09:51:01;6.35;;;1.70;;
35667;SDS011;22158;59.280;17.806;2023-07-20T09:53:27;3.75;;;1.60;;
35667;SDS011;22158;59.280;17.806;2023-07-20T09:55:54;4.13;;;1.83;;
35667;SDS011;22158;59.280;17.806;2023-07-20T09:58:21;4.70;;;2.05;;
35667;SDS011;22158;59.280;17.806;2023-07-20T10:00:46;4.22;;;1.83;;
35667;SDS011;22158;59.280;17.806;2023-07-20T10:03:18;4.75;;;1.80;;
35667;SDS011;22158;59.280;17.806;2023-07-20T10:05:51;2.92;;;1.40;;
35667;SDS011;22158;59.280;17.806;2023-07-20T10:08:21;4.65;;;1.70;;
35667;SDS011;22158;59.280;17.806;2023-07-20T10:10:49;1.98;;;1.13;;
35667;SDS011;22158;59.280;17.806;2023-07-20T10:13:21;3.25;;;1.65;;
35667;SDS011;22158;59.280;17.806;2023-07-20T10:15:51;8.55;;;1.70;;
35667;SDS011;22158;59.280;17.806;2023-07-20T10:20:56;3.60;;;2.00;;
35667;SDS011;22158;59.280;17.806;2023-07-20T10:23:24;5.25;;;1.98;;
35667;SDS011;22158;59.280;17.806;2023-07-20T10:25:51;10.43;;;1.58;;
35667;SDS011;22158;59.280;17.806;2023-07-20T10:28:18;9.10;;;2.15;;
35667;SDS011;22158;59.280;17.806;2023-07-20T10:30:44;5.90;;;1.65;;
35667;SDS011;22158;59.280;17.806;2023-07-20T10:33:10;5.13;;;1.55;;
35667;SDS011;22158;59.280;17.806;2023-07-20T10:35:55;6.78;;;1.35;;
35667;SDS011;22158;59.280;17.806;2023-07-20T10:43:47;4.88;;;1.30;;
35667;SDS011;22158;59.280;17.806;2023-07-20T10:46:14;2.92;;;1.67;;
35667;SDS011;22158;59.280;17.806;2023-07-20T10:49:22;3.63;;;0.98;;
35667;SDS011;22158;59.280;17.806;2023-07-20T10:51:29;1.90;;;1.00;;
35667;SDS011;22158;59.280;17.806;2023-07-20T10:53:59;1.55;;;0.70;;
35667;SDS011;22158;59.280;17.806;2023-07-20T10:56:27;2.45;;;1.13;;
35667;SDS011;22158;59.280;17.806;2023-07-20T10:58:59;4.57;;;0.98;;
35667;SDS011;22158;59.280;17.806;2023-07-20T11:01:35;3.40;;;1.42;;
35667;SDS011;22158;59.280;17.806;2023-07-20T11:04:02;3.20;;;1.20;;
35667;SDS011;22158;59.280;17.806;2023-07-20T11:06:33;1.50;;;1.15;;
35667;SDS011;22158;59.280;17.806;2023-07-20T11:09:03;2.78;;;1.52;;
35667;SDS011;22158;59.280;17.806;2023-07-20T11:11:39;1.58;;;1.00;;
35667;SDS011;22158;59.280;17.806;2023-07-20T11:14:07;1.55;;;1.38;;
35667;SDS011;22158;59.280;17.806;2023-07-20T11:19:13;2.47;;;1.02;;
35667;SDS011;22158;59.280;17.806;2023-07-20T11:21:43;2.30;;;0.85;;
35667;SDS011;22158;59.280;17.806;2023-07-20T11:24:14;1.50;;;1.10;;
35667;SDS011;22158;59.280;17.806;2023-07-20T11:29:13;1.83;;;0.90;;
35667;SDS011;22158;59.280;17.806;2023-07-20T11:31:41;4.93;;;1.50;;
35667;SDS011;22158;59.280;17.806;2023-07-20T11:34:09;2.03;;;1.40;;
35667;SDS011;22158;59.280;17.806;2023-07-20T11:36:37;4.70;;;1.23;;
35667;SDS011;22158;59.280;17.806;2023-07-20T11:39:06;3.80;;;1.33;;
35667;SDS011;22158;59.280;17.806;2023-07-20T11:41:34;3.28;;;1.20;;
35667;SDS011;22158;59.280;17.806;2023-07-20T11:43:59;2.08;;;0.98;;
35667;SDS011;22158;59.280;17.806;2023-07-20T11:46:25;9.20;;;1.45;;
35667;SDS011;22158;59.280;17.806;2023-07-20T11:48:57;2.75;;;1.15;;
35667;SDS011;22158;59.280;17.806;2023-07-20T11:51:28;6.07;;;1.92;;
35667;SDS011;22158;59.280;17.806;2023-07-20T11:53:55;2.22;;;0.98;;
35667;SDS011;22158;59.280;17.806;2023-07-20T11:56:22;3.33;;;1.42;;
35667;SDS011;22158;59.280;17.806;2023-07-20T11:58:49;2.22;;;1.40;;
35667;SDS011;22158;59.280;17.806;2023-07-20T12:01:15;2.13;;;1.30;;
35667;SDS011;22158;59.280;17.806;2023-07-20T12:03:42;2.42;;;1.00;;
35667;SDS011;22158;59.280;17.806;2023-07-20T12:06:09;2.67;;;1.40;;
35667;SDS011;22158;59.280;17.806;2023-07-20T12:08:38;2.53;;;1.55;;
35667;SDS011;22158;59.280;17.806;2023-07-20T12:11:05;2.00;;;1.20;;
35667;SDS011;22158;59.280;17.806;2023-07-20T12:13:37;3.05;;;1.77;;
35667;SDS011;22158;59.280;17.806;2023-07-20T12:16:15;3.80;;;1.23;;
35667;SDS011;22158;59.280;17.806;2023-07-20T12:18:42;1.27;;;0.90;;
35667;SDS011;22158;59.280;17.806;2023-07-20T12:21:09;1.55;;;0.95;;
35667;SDS011;22158;59.280;17.806;2023-07-20T12:23:35;1.40;;;0.90;;
35667;SDS011;22158;59.280;17.806;2023-07-20T12:26:08;1.45;;;0.80;;
35667;SDS011;22158;59.280;17.806;2023-07-20T12:28:40;1.33;;;0.73;;
35667;SDS011;22158;59.280;17.806;2023-07-20T12:31:06;2.10;;;0.98;;
35667;SDS011;22158;59.280;17.806;2023-07-20T12:33:36;1.85;;;0.90;;
35667;SDS011;22158;59.280;17.806;2023-07-20T12:36:03;1.98;;;1.20;;
35667;SDS011;22158;59.280;17.806;2023-07-20T12:38:29;1.63;;;1.00;;
35667;SDS011;22158;59.280;17.806;2023-07-20T12:41:00;2.75;;;0.93;;
35667;SDS011;22158;59.280;17.806;2023-07-20T12:43:26;3.25;;;1.10;;
35667;SDS011;22158;59.280;17.806;2023-07-20T12:45:52;3.78;;;0.90;;
35667;SDS011;22158;59.280;17.806;2023-07-20T12:48:18;2.05;;;1.23;;
35667;SDS011;22158;59.280;17.806;2023-07-20T12:50:43;4.30;;;1.08;;
35667;SDS011;22158;59.280;17.806;2023-07-20T12:53:09;4.25;;;1.65;;
35667;SDS011;22158;59.280;17.806;2023-07-20T12:55:34;5.10;;;1.35;;
35667;SDS011;22158;59.280;17.806;2023-07-20T12:58:00;3.03;;;1.50;;
35667;SDS011;22158;59.280;17.806;2023-07-20T13:00:26;3.58;;;1.80;;
35667;SDS011;22158;59.280;17.806;2023-07-20T13:02:51;5.35;;;1.20;;
35667;SDS011;22158;59.280;17.806;2023-07-20T13:05:17;6.93;;;1.48;;
35667;SDS011;22158;59.280;17.806;2023-07-20T13:07:43;3.40;;;1.38;;
35667;SDS011;22158;59.280;17.806;2023-07-20T13:10:09;2.72;;;1.40;;
35667;SDS011;22158;59.280;17.806;2023-07-20T13:12:35;8.25;;;1.50;;
35667;SDS011;22158;59.280;17.806;2023-07-20T13:15:02;3.00;;;1.30;;
35667;SDS011;22158;59.280;17.806;2023-07-20T13:17:32;4.63;;;1.20;;
35667;SDS011;22158;59.280;17.806;2023-07-20T13:19:58;2.70;;;1.30;;
35667;SDS011;22158;59.280;17.806;2023-07-20T13:22:24;2.25;;;1.17;;
35667;SDS011;22158;59.280;17.806;2023-07-20T13:24:49;3.17;;;1.23;;
35667;SDS011;22158;59.280;17.806;2023-07-20T13:27:18;1.27;;;0.80;;
35667;SDS011;22158;59.280;17.806;2023-07-20T13:29:44;2.85;;;1.27;;
35667;SDS011;22158;59.280;17.806;2023-07-20T13:32:12;2.10;;;1.15;;
35667;SDS011;22158;59.280;17.806;2023-07-20T13:34:39;6.72;;;1.42;;
35667;SDS011;22158;59.280;17.806;2023-07-20T13:37:05;1.63;;;0.85;;
35667;SDS011;22158;59.280;17.806;2023-07-20T13:39:31;1.98;;;0.98;;
35667;SDS011;22158;59.280;17.806;2023-07-20T13:41:56;4.25;;;1.10;;
35667;SDS011;22158;59.280;17.806;2023-07-20T13:44:22;1.38;;;0.90;;
35667;SDS011;22158;59.280;17.806;2023-07-20T13:46:48;1.85;;;0.82;;
35667;SDS011;22158;59.280;17.806;2023-07-20T13:49:14;2.45;;;1.10;;
35667;SDS011;22158;59.280;17.806;2023-07-20T13:51:39;1.33;;;1.10;;
35667;SDS011;22158;59.280;17.806;2023-07-20T13:54:06;2.67;;;1.23;;
35667;SDS011;22158;59.280;17.806;2023-07-20T13:56:32;2.45;;;1.20;;
35667;SDS011;22158;59.280;17.806;2023-07-20T13:58:57;1.90;;;1.00;;
35667;SDS011;22158;59.280;17.806;2023-07-20T14:01:23;1.52;;;0.73;;
35667;SDS011;22158;59.280;17.806;2023-07-20T14:03:49;2.13;;;1.42;;
35667;SDS011;22158;59.280;17.806;2023-07-20T14:06:16;3.00;;;1.05;;
35667;SDS011;22158;59.280;17.806;2023-07-20T14:08:42;1.35;;;1.02;;
35667;SDS011;22158;59.280;17.806;2023-07-20T14:11:11;4.15;;;1.10;;
35667;SDS011;22158;59.280;17.806;2023-07-20T14:13:37;3.83;;;0.90;;
35667;SDS011;22158;59.280;17.806;2023-07-20T14:16:03;2.03;;;1.08;;
35667;SDS011;22158;59.280;17.806;2023-07-20T14:18:29;1.67;;;1.00;;
35667;SDS011;22158;59.280;17.806;2023-07-20T14:20:54;4.57;;;1.33;;
35667;SDS011;22158;59.280;17.806;2023-07-20T14:23:20;2.33;;;1.20;;
35667;SDS011;22158;59.280;17.806;2023-07-20T14:25:45;2.63;;;1.60;;
35667;SDS011;22158;59.280;17.806;2023-07-20T14:28:11;1.80;;;0.77;;
35667;SDS011;22158;59.280;17.806;2023-07-20T14:30:37;1.63;;;1.05;;
35667;SDS011;22158;59.280;17.806;2023-07-20T14:33:03;2.08;;;0.88;;
35667;SDS011;22158;59.280;17.806;2023-07-20T14:35:28;4.05;;;1.00;;
35667;SDS011;22158;59.280;17.806;2023-07-20T14:37:54;3.13;;;1.05;;
35667;SDS011;22158;59.280;17.806;2023-07-20T14:40:20;8.48;;;1.98;;
35667;SDS011;22158;59.280;17.806;2023-07-20T14:42:46;5.07;;;0.98;;
35667;SDS011;22158;59.280;17.806;2023-07-20T14:45:11;4.22;;;2.00;;
35667;SDS011;22158;59.280;17.806;2023-07-20T14:47:37;2.75;;;1.20;;
35667;SDS011;22158;59.280;17.806;2023-07-20T14:50:02;2.50;;;1.38;;
35667;SDS011;22158;59.280;17.806;2023-07-20T14:52:29;7.15;;;1.45;;
35667;SDS011;22158;59.280;17.806;2023-07-20T14:54:55;4.50;;;1.27;;
35667;SDS011;22158;59.280;17.806;2023-07-20T14:57:20;6.18;;;1.52;;